createdAt,value
2023-04-07T00:00:40.906Z,14.23
2023-04-07T00:03:07.831Z,16.02
2023-04-07T00:05:35.003Z,16.05
2023-04-07T00:08:01.784Z,15.27
2023-04-07T00:10:28.725Z,15.13
2023-04-07T00:12:55.492Z,17.15
2023-04-07T00:15:23.318Z,14.98
2023-04-07T00:17:50.613Z,16.65
2023-04-07T00:20:17.397Z,13.95
2023-04-07T00:22:50.010Z,14.75
2023-04-07T00:25:20.479Z,13.88
2023-04-07T00:27:47.420Z,15.90
2023-04-07T00:30:15.569Z,16.02
2023-04-07T00:32:42.534Z,13.65
2023-04-07T00:35:12.347Z,15.43
2023-04-07T00:37:40.530Z,16.17
2023-04-07T00:40:08.058Z,16.08
2023-04-07T00:42:35.597Z,16.02
2023-04-07T00:45:02.565Z,18.42
2023-04-07T00:47:30.909Z,16.08
2023-04-07T00:49:57.841Z,20.13
2023-04-07T00:52:29.056Z,16.67
2023-04-07T00:54:56.187Z,18.33
2023-04-07T00:57:23.639Z,14.73
2023-04-07T00:59:52.762Z,17.92
2023-04-07T01:02:28.791Z,15.93
2023-04-07T01:05:12.248Z,16.70
2023-04-07T01:08:10.540Z,15.55
2023-04-07T01:11:05.550Z,16.20
2023-04-07T01:13:43.095Z,17.55
2023-04-07T01:16:53.812Z,18.52
2023-04-07T01:19:39.938Z,18.25
2023-04-07T01:22:26.666Z,17.10
2023-04-07T01:25:17.148Z,16.73
2023-04-07T01:27:48.465Z,15.90
2023-04-07T01:30:17.241Z,17.73
2023-04-07T01:32:49.925Z,19.75
2023-04-07T01:37:48.939Z,20.17
2023-04-07T01:40:16.746Z,17.85
2023-04-07T01:42:44.771Z,19.48
2023-04-07T01:45:12.668Z,18.35
2023-04-07T01:47:40.914Z,16.42
2023-04-07T01:50:09.928Z,16.55
2023-04-07T01:52:37.860Z,15.88
2023-04-07T01:55:06.283Z,19.25
2023-04-07T01:57:37.275Z,15.88
2023-04-07T02:00:11.768Z,19.80
2023-04-07T02:02:59.283Z,17.48
2023-04-07T02:05:29.858Z,19.42
2023-04-07T02:08:03.900Z,17.80
2023-04-07T02:10:36.311Z,15.70
2023-04-07T02:13:05.870Z,19.40
2023-04-07T02:15:33.342Z,15.77
2023-04-07T02:18:02.091Z,19.15
2023-04-07T02:20:30.312Z,21.15
2023-04-07T02:22:58.268Z,21.60
2023-04-07T02:25:28.770Z,18.85
2023-04-07T02:27:57.158Z,18.45
2023-04-07T02:30:24.600Z,21.45
2023-04-07T02:32:52.100Z,19.00
2023-04-07T02:35:21.239Z,21.05
2023-04-07T02:37:49.938Z,20.50
2023-04-07T02:40:16.831Z,18.25
2023-04-07T02:42:44.335Z,23.35
2023-04-07T02:45:11.606Z,22.73
2023-04-07T02:47:39.317Z,17.77
2023-04-07T02:50:07.165Z,19.77
2023-04-07T02:52:35.977Z,19.75
2023-04-07T02:55:07.435Z,18.15
2023-04-07T02:57:35.083Z,20.17
2023-04-07T03:00:07.215Z,20.05
2023-04-07T03:02:53.713Z,21.10
2023-04-07T03:05:20.678Z,24.13
2023-04-07T03:07:47.426Z,20.55
2023-04-07T03:10:14.247Z,20.65
2023-04-07T03:12:41.084Z,27.30
2023-04-07T03:15:08.421Z,21.13
2023-04-07T03:17:36.717Z,23.88
2023-04-07T03:20:05.365Z,22.15
2023-04-07T03:22:35.179Z,21.60
2023-04-07T03:25:02.069Z,21.85
2023-04-07T03:27:30.047Z,22.45
2023-04-07T03:29:59.969Z,24.42
2023-04-07T03:32:32.701Z,23.30
2023-04-07T03:34:59.476Z,24.10
2023-04-07T03:37:26.628Z,22.55
2023-04-07T03:39:54.830Z,22.23
2023-04-07T03:42:34.339Z,22.80
2023-04-07T03:45:04.385Z,23.88
2023-04-07T03:47:33.680Z,22.35
2023-04-07T03:50:02.874Z,25.25
2023-04-07T03:52:33.993Z,24.42
2023-04-07T03:55:09.927Z,25.45
2023-04-07T03:57:36.743Z,21.73
2023-04-07T04:00:05.083Z,23.83
2023-04-07T04:02:43.655Z,26.08
2023-04-07T04:05:15.195Z,23.08
2023-04-07T04:07:43.080Z,20.35
2023-04-07T04:10:10.691Z,22.98
2023-04-07T04:12:44.327Z,25.85
2023-04-07T04:15:13.544Z,22.60
2023-04-07T04:17:40.519Z,24.10
2023-04-07T04:20:09.248Z,23.65
2023-04-07T04:22:51.559Z,24.38
2023-04-07T04:25:19.211Z,25.15
2023-04-07T04:27:54.013Z,21.55
2023-04-07T04:30:23.461Z,25.42
2023-04-07T04:32:54.743Z,26.27
2023-04-07T04:35:32.635Z,26.10
2023-04-07T04:38:06.534Z,23.17
2023-04-07T04:40:35.056Z,23.58
2023-04-07T04:43:06.955Z,26.65
2023-04-07T04:45:36.374Z,26.27
2023-04-07T04:48:04.358Z,22.00
2023-04-07T04:50:31.202Z,25.67
2023-04-07T04:52:58.338Z,26.90
2023-04-07T04:55:25.135Z,27.17
2023-04-07T04:57:56.410Z,26.42
2023-04-07T05:00:33.528Z,24.92
2023-04-07T05:03:04.518Z,25.00
2023-04-07T05:05:36.354Z,28.15
2023-04-07T05:08:05.330Z,25.80
2023-04-07T05:10:40.428Z,27.20
2023-04-07T05:13:11.686Z,27.17
2023-04-07T05:15:41.253Z,28.20
2023-04-07T05:18:10.664Z,25.65
2023-04-07T05:20:37.528Z,27.42
2023-04-07T05:23:04.510Z,29.23
2023-04-07T05:25:33.677Z,26.25
2023-04-07T05:28:03.915Z,25.25
2023-04-07T05:30:31.391Z,29.38
2023-04-07T05:32:58.737Z,26.77
2023-04-07T05:35:51.765Z,27.95
2023-04-07T05:38:19.642Z,29.58
2023-04-07T05:40:47.229Z,27.67
2023-04-07T05:43:21.974Z,29.83
2023-04-07T05:45:49.497Z,29.00
2023-04-07T05:48:16.542Z,29.00
2023-04-07T05:50:46.073Z,29.73
2023-04-07T05:53:16.476Z,26.10
2023-04-07T05:55:43.777Z,27.52
2023-04-07T05:58:14.944Z,26.77
2023-04-07T06:00:47.631Z,25.60
2023-04-07T06:03:19.069Z,30.63
2023-04-07T06:06:01.234Z,23.95
2023-04-07T06:08:28.045Z,27.33
2023-04-07T06:10:55.011Z,28.05
2023-04-07T06:13:21.866Z,24.88
2023-04-07T06:15:48.705Z,26.05
2023-04-07T06:18:16.023Z,26.63
2023-04-07T06:20:42.894Z,27.60
2023-04-07T06:23:09.621Z,25.40
2023-04-07T06:25:36.391Z,25.85
2023-04-07T06:28:03.975Z,25.60
2023-04-07T06:30:31.010Z,23.15
2023-04-07T06:32:58.493Z,26.38
2023-04-07T06:35:26.951Z,23.08
2023-04-07T06:37:53.782Z,30.02
2023-04-07T06:40:21.560Z,24.08
2023-04-07T06:42:48.352Z,22.67
2023-04-07T06:45:23.029Z,23.35
2023-04-07T06:47:50.062Z,29.83
2023-04-07T06:50:20.949Z,24.40
2023-04-07T06:52:47.844Z,24.45
2023-04-07T06:55:14.850Z,21.15
2023-04-07T06:57:42.087Z,22.45
2023-04-07T07:00:09.309Z,25.95
2023-04-07T07:02:36.282Z,23.23
2023-04-07T07:05:04.835Z,23.90
2023-04-07T07:07:31.901Z,21.70
2023-04-07T07:09:58.685Z,23.60
2023-04-07T07:12:25.771Z,26.73
2023-04-07T07:14:52.715Z,23.95
2023-04-07T07:17:19.572Z,24.42
2023-04-07T07:19:46.383Z,22.85
2023-04-07T07:22:13.149Z,22.23
2023-04-07T07:24:39.886Z,24.00
2023-04-07T07:27:06.939Z,22.52
2023-04-07T07:29:33.685Z,20.55
2023-04-07T07:32:00.458Z,21.40
2023-04-07T07:34:27.189Z,25.13
2023-04-07T07:36:53.922Z,20.30
2023-04-07T07:39:20.748Z,23.10
2023-04-07T07:41:47.433Z,22.35
2023-04-07T07:44:14.240Z,24.98
2023-04-07T07:46:41.328Z,22.25
2023-04-07T07:49:08.269Z,25.08
2023-04-07T07:51:34.976Z,22.98
2023-04-07T07:54:01.707Z,22.48
2023-04-07T07:56:28.859Z,22.33
2023-04-07T07:58:58.094Z,22.80
2023-04-07T08:01:25.122Z,23.98
2023-04-07T08:03:52.354Z,23.75
2023-04-07T08:06:19.560Z,24.58
2023-04-07T08:08:46.350Z,27.73
2023-04-07T08:11:13.140Z,21.73
2023-04-07T08:13:40.004Z,21.63
2023-04-07T08:16:07.264Z,22.48
2023-04-07T08:18:34.007Z,25.50
2023-04-07T08:21:00.766Z,24.15
2023-04-07T08:23:27.672Z,21.40
2023-04-07T08:25:54.550Z,22.58
2023-04-07T08:28:23.088Z,25.05
2023-04-07T08:30:49.932Z,29.90
2023-04-07T08:33:17.865Z,21.00
2023-04-07T08:35:44.593Z,21.73
2023-04-07T08:38:11.769Z,21.60
2023-04-07T08:40:38.642Z,24.40
2023-04-07T08:43:09.968Z,21.58
2023-04-07T08:45:40.811Z,24.33
2023-04-07T08:48:17.721Z,23.98
2023-04-07T08:50:46.397Z,22.70
2023-04-07T08:53:18.096Z,23.67
2023-04-07T08:55:44.904Z,25.80
2023-04-07T08:58:13.438Z,21.48
2023-04-07T09:00:46.424Z,24.00
2023-04-07T09:03:13.682Z,22.58
2023-04-07T09:05:41.265Z,24.65
2023-04-07T09:08:07.969Z,20.95
2023-04-07T09:10:34.678Z,24.05
2023-04-07T09:13:01.391Z,25.35
2023-04-07T09:15:32.196Z,22.30
2023-04-07T09:17:59.614Z,27.10
2023-04-07T09:20:26.552Z,21.27
2023-04-07T09:22:56.086Z,25.80
2023-04-07T09:25:30.383Z,22.92
2023-04-07T09:28:02.225Z,24.88
2023-04-07T09:30:30.781Z,26.35
2023-04-07T09:33:00.635Z,21.63
2023-04-07T09:35:28.880Z,21.52
2023-04-07T09:38:09.854Z,21.95
2023-04-07T09:40:37.733Z,23.42
2023-04-07T09:43:07.250Z,23.05
2023-04-07T09:45:37.111Z,26.30
2023-04-07T09:48:08.953Z,22.95
2023-04-07T09:50:41.445Z,24.30
2023-04-07T09:53:08.655Z,22.17
2023-04-07T09:55:36.877Z,23.90
2023-04-07T09:58:06.446Z,23.10
2023-04-07T10:00:33.596Z,23.55
2023-04-07T10:03:01.961Z,22.40
2023-04-07T10:05:29.157Z,23.55
2023-04-07T10:07:57.143Z,25.27
2023-04-07T10:10:26.793Z,24.08
2023-04-07T10:12:57.019Z,25.42
2023-04-07T10:15:29.461Z,25.52
2023-04-07T10:17:57.261Z,29.52
2023-04-07T10:20:24.914Z,23.35
2023-04-07T10:22:53.833Z,22.80
2023-04-07T10:25:23.455Z,25.33
2023-04-07T10:28:05.084Z,21.63
2023-04-07T10:30:33.875Z,21.88
2023-04-07T10:33:01.364Z,23.73
2023-04-07T10:35:29.871Z,21.13
2023-04-07T10:38:14.160Z,23.73
2023-04-07T10:40:42.855Z,23.83
2023-04-07T10:43:11.514Z,21.90
2023-04-07T10:45:52.252Z,23.10
2023-04-07T10:48:20.169Z,21.83
2023-04-07T10:51:05.425Z,25.13
2023-04-07T10:53:34.754Z,26.70
2023-04-07T10:56:01.806Z,24.67
2023-04-07T10:58:32.783Z,24.13
2023-04-07T11:01:09.469Z,25.50
2023-04-07T11:03:42.329Z,26.00
2023-04-07T11:06:11.911Z,26.77
2023-04-07T11:08:48.921Z,26.58
2023-04-07T11:11:38.306Z,27.83
2023-04-07T11:14:05.647Z,28.17
2023-04-07T11:16:38.782Z,28.50
2023-04-07T11:19:05.715Z,24.48
2023-04-07T11:21:32.543Z,23.58
2023-04-07T11:23:59.271Z,27.70
2023-04-07T11:26:27.304Z,28.50
2023-04-07T11:28:55.763Z,28.48
2023-04-07T11:31:32.434Z,30.73
2023-04-07T11:34:05.154Z,29.08
2023-04-07T11:36:38.255Z,26.83
2023-04-07T11:39:05.341Z,29.23
2023-04-07T11:41:33.944Z,25.60
2023-04-07T11:44:09.195Z,24.52
2023-04-07T11:46:36.899Z,21.30
2023-04-07T11:49:15.741Z,25.50
2023-04-07T11:51:44.483Z,23.63
2023-04-07T11:54:11.575Z,21.23
2023-04-07T11:56:48.321Z,21.65
2023-04-07T11:59:23.243Z,22.20
2023-04-07T12:01:52.121Z,21.23
2023-04-07T12:04:20.527Z,20.75
2023-04-07T12:06:48.597Z,18.52
2023-04-07T12:09:36.464Z,19.02
2023-04-07T12:12:08.517Z,17.70
2023-04-07T12:14:36.616Z,17.65
2023-04-07T12:17:04.228Z,17.83
2023-04-07T12:19:33.669Z,21.60
2023-04-07T12:22:00.697Z,21.90
2023-04-07T12:24:29.839Z,21.70
2023-04-07T12:26:56.677Z,19.25
2023-04-07T12:29:23.349Z,21.80
2023-04-07T12:31:51.292Z,23.30
2023-04-07T12:34:21.688Z,20.63
2023-04-07T12:36:48.663Z,20.15
2023-04-07T12:39:16.573Z,22.10
2023-04-07T12:41:45.417Z,20.58
2023-04-07T12:44:12.262Z,18.75
2023-04-07T12:46:39.025Z,18.40
2023-04-07T12:49:06.083Z,21.35
2023-04-07T12:51:34.060Z,19.60
2023-04-07T12:54:01.461Z,19.38
2023-04-07T12:56:28.855Z,19.85
2023-04-07T12:58:55.690Z,17.73
2023-04-07T13:01:22.711Z,19.13
2023-04-07T13:03:49.882Z,20.13
2023-04-07T13:06:17.679Z,19.38
2023-04-07T13:08:45.081Z,16.88
2023-04-07T13:11:11.813Z,18.67
2023-04-07T13:13:38.633Z,17.85
2023-04-07T13:16:05.684Z,20.83
2023-04-07T13:18:32.698Z,19.10
2023-04-07T13:21:30.637Z,18.95
2023-04-07T13:23:51.781Z,19.95
2023-04-07T13:26:18.706Z,16.65
2023-04-07T13:28:48.701Z,17.25
2023-04-07T13:31:16.277Z,18.00
2023-04-07T13:33:45.328Z,20.67
2023-04-07T13:36:12.439Z,19.20
2023-04-07T13:38:39.182Z,18.38
2023-04-07T13:41:05.935Z,17.40
2023-04-07T13:43:32.766Z,19.85
2023-04-07T13:45:59.581Z,18.52
2023-04-07T13:48:26.458Z,17.45
2023-04-07T13:50:53.313Z,15.43
2023-04-07T13:53:20.322Z,16.48
2023-04-07T13:55:47.142Z,18.23
2023-04-07T13:58:13.944Z,17.83
2023-04-07T14:00:42.557Z,17.25
2023-04-07T14:03:09.661Z,17.65
2023-04-07T14:05:36.591Z,18.60
2023-04-07T14:08:03.577Z,20.85
2023-04-07T14:10:30.575Z,20.20
2023-04-07T14:12:57.706Z,18.60
2023-04-07T14:15:26.473Z,16.15
2023-04-07T14:17:53.330Z,18.35
2023-04-07T14:20:20.031Z,18.45
2023-04-07T14:22:46.814Z,21.17
2023-04-07T14:25:13.643Z,20.10
2023-04-07T14:27:40.550Z,19.75
2023-04-07T14:30:08.940Z,17.80
2023-04-07T14:32:35.938Z,19.17
2023-04-07T14:35:03.120Z,18.92
2023-04-07T14:37:30.921Z,20.48
2023-04-07T14:42:29.735Z,19.95
2023-04-07T14:44:56.727Z,18.75
2023-04-07T14:47:23.687Z,21.15
2023-04-07T14:49:53.366Z,19.17
2023-04-07T14:52:22.041Z,19.08
2023-04-07T14:54:49.104Z,16.48
2023-04-07T14:57:16.825Z,16.90
2023-04-07T14:59:44.079Z,16.95
2023-04-07T15:02:11.336Z,21.15
2023-04-07T15:04:38.741Z,18.90
2023-04-07T15:07:05.807Z,18.23
2023-04-07T15:09:33.646Z,18.83
2023-04-07T15:12:02.220Z,16.08
2023-04-07T15:14:29.618Z,17.15
2023-04-07T15:16:56.478Z,18.77
2023-04-07T15:19:23.303Z,18.20
2023-04-07T15:21:50.123Z,19.13
2023-04-07T15:24:17.155Z,17.83
2023-04-07T15:26:43.991Z,17.27
2023-04-07T15:29:10.768Z,23.45
2023-04-07T15:31:37.790Z,17.98
2023-04-07T15:34:05.493Z,18.80
2023-04-07T15:36:32.231Z,22.02
2023-04-07T15:39:07.115Z,18.77
2023-04-07T15:41:34.645Z,17.98
2023-04-07T15:44:04.376Z,18.85
2023-04-07T15:46:33.910Z,21.65
2023-04-07T15:49:01.146Z,20.23
2023-04-07T15:51:29.014Z,20.33
2023-04-07T15:53:55.889Z,20.30
2023-04-07T15:56:24.808Z,20.08
2023-04-07T15:58:52.107Z,21.45
2023-04-07T16:01:19.168Z,20.77
2023-04-07T16:03:46.146Z,23.20
2023-04-07T16:06:14.322Z,21.27
2023-04-07T16:08:42.123Z,19.23
2023-04-07T16:11:09.006Z,22.02
2023-04-07T16:13:36.409Z,22.52
2023-04-07T16:16:03.205Z,18.65
2023-04-07T16:18:30.523Z,29.45
2023-04-07T16:20:57.293Z,21.02
2023-04-07T16:23:24.439Z,21.00
2023-04-07T16:25:51.508Z,21.95
2023-04-07T16:28:18.425Z,23.55
2023-04-07T16:30:45.429Z,24.30
2023-04-07T16:33:12.502Z,23.45
2023-04-07T16:35:39.309Z,24.33
2023-04-07T16:38:06.698Z,22.60
2023-04-07T16:40:34.119Z,22.35
2023-04-07T16:43:00.950Z,24.00
2023-04-07T16:45:27.878Z,23.88
2023-04-07T16:47:54.744Z,23.10
2023-04-07T16:50:21.633Z,24.67
2023-04-07T16:52:51.215Z,23.25
2023-04-07T16:55:18.056Z,23.55
2023-04-07T16:57:44.842Z,23.38
2023-04-07T17:00:12.248Z,24.58
2023-04-07T17:02:39.148Z,22.27
2023-04-07T17:05:06.569Z,22.58
2023-04-07T17:07:33.351Z,24.75
2023-04-07T17:10:00.512Z,21.75
2023-04-07T17:12:27.814Z,22.95
2023-04-07T17:14:54.553Z,23.20
2023-04-07T17:17:21.649Z,21.30
2023-04-07T17:19:48.481Z,25.08
2023-04-07T17:22:15.612Z,25.90
2023-04-07T17:24:44.566Z,23.77
2023-04-07T17:27:11.653Z,24.33
2023-04-07T17:29:38.505Z,23.42
2023-04-07T17:32:06.074Z,24.23
2023-04-07T17:34:32.826Z,24.90
2023-04-07T17:36:59.620Z,24.05
2023-04-07T17:39:26.752Z,23.05
2023-04-07T17:41:53.544Z,21.58
2023-04-07T17:44:20.469Z,22.67
2023-04-07T17:46:55.826Z,24.73
2023-04-07T17:49:24.659Z,22.92
2023-04-07T17:51:51.424Z,22.05
2023-04-07T17:54:19.319Z,22.98
2023-04-07T17:56:46.369Z,23.75
2023-04-07T17:59:13.086Z,21.67
2023-04-07T18:01:40.002Z,23.25
2023-04-07T18:04:07.390Z,23.25
2023-04-07T18:06:38.271Z,21.10
2023-04-07T18:09:05.064Z,26.05
2023-04-07T18:11:32.676Z,22.55
2023-04-07T18:13:59.586Z,23.02
2023-04-07T18:16:26.395Z,24.23
2023-04-07T18:18:53.215Z,22.10
2023-04-07T18:21:19.943Z,23.38
2023-04-07T18:23:51.463Z,25.42
2023-04-07T18:26:27.432Z,22.05
2023-04-07T18:29:00.180Z,25.67
2023-04-07T18:31:27.619Z,25.15
2023-04-07T18:33:54.463Z,20.92
2023-04-07T18:36:24.743Z,25.70
2023-04-07T18:38:51.991Z,21.05
2023-04-07T18:41:18.863Z,20.92
2023-04-07T18:43:48.971Z,19.67
2023-04-07T18:46:16.155Z,18.65
2023-04-07T18:48:44.565Z,20.20
2023-04-07T18:51:11.864Z,18.08
2023-04-07T18:53:38.947Z,18.92
2023-04-07T18:56:05.703Z,20.88
2023-04-07T18:58:32.592Z,20.30
2023-04-07T19:00:59.314Z,20.60
2023-04-07T19:03:26.597Z,19.52
2023-04-07T19:05:55.381Z,22.17
2023-04-07T19:08:22.679Z,21.90
2023-04-07T19:10:50.947Z,21.63
2023-04-07T19:13:18.725Z,22.40
2023-04-07T19:15:46.506Z,21.83
2023-04-07T19:18:13.686Z,22.65
2023-04-07T19:20:43.589Z,24.15
2023-04-07T19:23:10.366Z,26.45
2023-04-07T19:25:38.439Z,26.75
2023-04-07T19:28:08.517Z,26.67
2023-04-07T19:30:35.435Z,29.85
2023-04-07T19:33:02.880Z,28.27
2023-04-07T19:35:31.260Z,29.17
2023-04-07T19:37:59.426Z,29.05
2023-04-07T19:40:26.858Z,28.05
2023-04-07T19:42:55.394Z,30.33
2023-04-07T19:45:22.262Z,28.30
2023-04-07T19:47:49.608Z,29.73
2023-04-07T19:50:16.624Z,31.73
2023-04-07T19:52:45.316Z,31.77
2023-04-07T19:55:14.154Z,31.23
2023-04-07T19:57:41.226Z,27.00
2023-04-07T20:00:10.431Z,30.20
2023-04-07T20:02:48.088Z,28.35
2023-04-07T20:05:15.083Z,28.92
2023-04-07T20:07:41.960Z,30.20
2023-04-07T20:10:09.157Z,32.08
2023-04-07T20:12:35.995Z,29.98
2023-04-07T20:15:04.869Z,29.65
2023-04-07T20:17:32.672Z,30.85
2023-04-07T20:19:59.818Z,30.45
2023-04-07T20:22:26.566Z,28.27
2023-04-07T20:24:53.289Z,29.85
2023-04-07T20:27:20.147Z,29.38
2023-04-07T20:29:47.113Z,32.10
2023-04-07T20:32:13.909Z,29.42
2023-04-07T20:34:43.568Z,30.83
2023-04-07T20:37:12.650Z,33.67
2023-04-07T20:39:39.584Z,28.38
2023-04-07T20:42:06.781Z,29.58
2023-04-07T20:44:33.996Z,27.88
2023-04-07T20:47:06.760Z,27.88
2023-04-07T20:49:33.927Z,29.83
2023-04-07T20:52:00.922Z,32.75
2023-04-07T20:54:29.760Z,27.67
2023-04-07T20:56:56.747Z,31.55
2023-04-07T20:59:23.686Z,30.67
2023-04-07T21:01:50.989Z,30.33
2023-04-07T21:04:18.101Z,31.05
2023-04-07T21:06:45.012Z,27.30
2023-04-07T21:09:11.805Z,29.15
2023-04-07T21:11:38.633Z,29.25
2023-04-07T21:14:05.497Z,34.00
2023-04-07T21:16:32.322Z,32.65
2023-04-07T21:18:59.111Z,29.33
2023-04-07T21:21:26.790Z,32.05
2023-04-07T21:23:53.533Z,29.08
2023-04-07T21:26:20.930Z,26.38
2023-04-07T21:28:47.891Z,25.92
2023-04-07T21:31:24.764Z,26.67
2023-04-07T21:33:53.189Z,23.00
2023-04-07T21:36:19.991Z,21.25
2023-04-07T21:38:47.883Z,22.98
2023-04-07T21:41:14.815Z,22.17
2023-04-07T21:43:41.802Z,23.95
2023-04-07T21:46:08.630Z,24.48
2023-04-07T21:48:35.417Z,28.23
2023-04-07T21:51:02.989Z,31.13
2023-04-07T21:53:29.776Z,27.95
2023-04-07T21:55:56.562Z,26.85
2023-04-07T21:58:23.571Z,25.95
2023-04-07T22:00:50.341Z,25.23
2023-04-07T22:03:17.143Z,24.73
2023-04-07T22:05:47.129Z,26.30
2023-04-07T22:08:13.985Z,25.77
2023-04-07T22:10:40.818Z,26.27
2023-04-07T22:13:07.597Z,24.70
2023-04-07T22:15:34.441Z,25.40
2023-04-07T22:18:01.383Z,27.63
2023-04-07T22:20:28.225Z,26.13
2023-04-07T22:22:57.691Z,20.40
2023-04-07T22:25:25.510Z,24.90
2023-04-07T22:27:52.807Z,24.77
2023-04-07T22:30:20.625Z,25.95
2023-04-07T22:32:48.273Z,24.20
2023-04-07T22:35:15.733Z,27.67
2023-04-07T22:37:42.493Z,27.83
2023-04-07T22:40:10.493Z,28.15
2023-04-07T22:42:38.158Z,25.80
2023-04-07T22:45:05.746Z,24.58
2023-04-07T22:47:32.603Z,29.70
2023-04-07T22:49:59.415Z,26.92
2023-04-07T22:52:26.304Z,33.75
2023-04-07T22:54:53.093Z,27.70
2023-04-07T22:57:19.881Z,28.83
2023-04-07T22:59:46.631Z,25.08
2023-04-07T23:02:13.428Z,28.88
2023-04-07T23:04:40.194Z,33.20
2023-04-07T23:07:06.963Z,28.38
2023-04-07T23:09:33.842Z,26.67
2023-04-07T23:12:01.466Z,26.60
2023-04-07T23:14:28.215Z,24.85
2023-04-07T23:16:56.170Z,27.50
2023-04-07T23:19:23.225Z,25.48
2023-04-07T23:21:50.049Z,24.95
2023-04-07T23:24:16.765Z,24.30
2023-04-07T23:26:43.543Z,23.63
2023-04-07T23:29:10.384Z,23.52
2023-04-07T23:31:37.136Z,25.08
2023-04-07T23:34:05.122Z,24.70
2023-04-07T23:36:32.302Z,26.13
2023-04-07T23:38:59.102Z,29.80
2023-04-07T23:41:25.929Z,27.00
2023-04-07T23:43:53.636Z,30.98
2023-04-07T23:46:21.124Z,30.65
2023-04-07T23:48:48.101Z,27.85
2023-04-07T23:51:15.118Z,31.77
2023-04-07T23:53:41.896Z,29.08
2023-04-07T23:56:08.932Z,25.42
2023-04-07T23:58:35.698Z,24.15
